Time;durP1;ratioP1;P1;durP2;ratioP2;P2;SDS_P1;SDS_P2;PMS_P1;PMS_P2;Temp;Humidity;BMP_temperature;BMP_pressure;BME280_temperature;BME280_humidity;BME280_pressure;Samples;Min_cycle;Max_cycle;Signal;HPM_P1;HPM_P2
2023/04/19 00:01:52;;;;;;;7.40;4.70;;;21.50;36.70;;;;;;5043172;28;20062;-49
2023/04/19 00:04:19;;;;;;;7.25;5.03;;;21.50;36.80;;;;;;5053553;28;20029;-51
2023/04/19 00:06:46;;;;;;;5.38;4.38;;;21.40;36.70;;;;;;5043146;28;20025;-52
2023/04/19 00:09:12;;;;;;;5.18;4.07;;;21.50;36.80;;;;;;5041389;28;20057;-49
2023/04/19 00:11:38;;;;;;;5.60;4.50;;;21.50;36.80;;;;;;5035459;28;20114;-50
2023/04/19 00:14:03;;;;;;;5.25;4.32;;;21.40;36.80;;;;;;5034444;28;20469;-51
2023/04/19 00:16:29;;;;;;;5.82;4.53;;;21.40;36.80;;;;;;5035068;28;20025;-50
2023/04/19 00:18:55;;;;;;;5.55;4.32;;;21.40;36.80;;;;;;5034845;28;20602;-51
2023/04/19 00:21:21;;;;;;;6.20;4.22;;;21.40;36.90;;;;;;5038793;28;20036;-49
2023/04/19 00:23:47;;;;;;;5.35;4.25;;;21.40;36.90;;;;;;5052922;28;20040;-49
2023/04/19 00:26:14;;;;;;;5.60;4.47;;;21.40;36.90;;;;;;5039880;28;20021;-50
2023/04/19 00:28:42;;;;;;;5.35;4.13;;;21.40;37.00;;;;;;5039589;28;20504;-51
2023/04/19 00:31:08;;;;;;;5.25;4.18;;;21.40;37.00;;;;;;5036485;28;20457;-49
2023/04/19 00:33:34;;;;;;;5.43;4.30;;;21.40;37.00;;;;;;5049260;28;20036;-50
2023/04/19 00:36:00;;;;;;;5.15;4.35;;;21.40;37.00;;;;;;5032685;28;20357;-54
2023/04/19 00:38:26;;;;;;;5.57;4.60;;;21.40;37.10;;;;;;5034583;28;20021;-51
2023/04/19 00:40:52;;;;;;;5.13;3.80;;;21.40;37.00;;;;;;5035478;28;20337;-49
2023/04/19 00:43:18;;;;;;;4.82;3.78;;;21.30;37.00;;;;;;5038167;28;20034;-52
2023/04/19 00:45:44;;;;;;;5.07;4.28;;;21.30;37.00;;;;;;5039541;28;20442;-54
2023/04/19 00:48:12;;;;;;;5.22;4.07;;;21.30;37.10;;;;;;5046678;28;20443;-53
2023/04/19 00:50:38;;;;;;;4.95;3.95;;;21.30;37.10;;;;;;5040067;28;20049;-49
2023/04/19 00:53:05;;;;;;;5.00;4.20;;;21.30;37.10;;;;;;5040787;28;20420;-51
2023/04/19 00:55:31;;;;;;;4.90;3.95;;;21.30;37.10;;;;;;5049770;28;20037;-51
2023/04/19 00:57:57;;;;;;;5.32;4.38;;;21.30;37.10;;;;;;5043366;28;20037;-52
2023/04/19 01:00:22;;;;;;;5.57;4.00;;;21.30;37.10;;;;;;5041829;28;20448;-53
2023/04/19 01:02:50;;;;;;;5.38;4.10;;;21.30;37.10;;;;;;5053624;28;20021;-51
2023/04/19 01:05:18;;;;;;;4.93;3.92;;;21.30;37.10;;;;;;5041423;28;20021;-52
2023/04/19 01:07:43;;;;;;;4.90;3.58;;;21.30;37.20;;;;;;5036129;28;20116;-50
2023/04/19 01:10:14;;;;;;;3.67;3.10;;;21.30;37.20;;;;;;5041926;28;20057;-50
2023/04/19 01:12:40;;;;;;;4.30;3.42;;;21.30;37.20;;;;;;5049263;28;20036;-52
2023/04/19 01:15:07;;;;;;;4.35;3.50;;;21.30;37.20;;;;;;5040324;28;20028;-51
2023/04/19 01:17:33;;;;;;;4.80;3.20;;;21.20;37.20;;;;;;5045025;28;20045;-49
2023/04/19 01:20:06;;;;;;;4.57;3.40;;;21.20;37.20;;;;;;5036785;28;20037;-50
2023/04/19 01:22:33;;;;;;;4.72;3.92;;;21.20;37.20;;;;;;5054476;28;20040;-50
2023/04/19 01:24:59;;;;;;;4.95;3.85;;;21.20;37.30;;;;;;5054294;28;20068;-51
2023/04/19 01:27:25;;;;;;;4.18;3.70;;;21.20;37.30;;;;;;5080557;28;20026;-51
2023/04/19 01:29:51;;;;;;;4.03;3.33;;;21.20;37.30;;;;;;5037038;28;20025;-48
2023/04/19 01:32:17;;;;;;;4.60;3.47;;;21.20;37.40;;;;;;5053431;28;20033;-53
2023/04/19 01:34:43;;;;;;;4.88;3.35;;;21.20;37.40;;;;;;5055188;28;20033;-50
2023/04/19 01:37:09;;;;;;;3.70;3.33;;;21.20;37.40;;;;;;5052071;28;20353;-53
2023/04/19 01:39:34;;;;;;;4.93;3.30;;;21.20;37.40;;;;;;5056979;28;20094;-49
2023/04/19 01:42:01;;;;;;;4.40;3.38;;;21.20;37.40;;;;;;5054335;28;20036;-52
2023/04/19 01:44:29;;;;;;;4.63;3.40;;;21.20;37.50;;;;;;5050408;28;20049;-49
2023/04/19 01:46:55;;;;;;;4.20;3.17;;;21.20;37.50;;;;;;5054362;28;20029;-50
2023/04/19 01:49:21;;;;;;;3.63;2.90;;;21.20;37.50;;;;;;5052500;28;20025;-53
2023/04/19 01:51:47;;;;;;;4.50;3.47;;;21.20;37.50;;;;;;5053146;28;20040;-48
2023/04/19 01:54:13;;;;;;;5.00;3.45;;;21.20;37.50;;;;;;5054487;28;20447;-49
2023/04/19 01:56:39;;;;;;;4.70;3.30;;;21.20;37.50;;;;;;5050828;28;20060;-49
2023/04/19 01:59:05;;;;;;;4.20;3.15;;;21.10;37.50;;;;;;5051396;28;20044;-53
2023/04/19 02:01:31;;;;;;;4.47;3.30;;;21.10;37.50;;;;;;5037944;28;20463;-48
2023/04/19 02:03:57;;;;;;;4.95;3.28;;;21.10;37.50;;;;;;5055722;28;20028;-49
2023/04/19 02:06:23;;;;;;;4.18;3.25;;;21.10;37.50;;;;;;5055968;28;20116;-48
2023/04/19 02:08:49;;;;;;;3.53;3.00;;;21.10;37.50;;;;;;5040837;28;20094;-49
2023/04/19 02:11:15;;;;;;;3.60;2.90;;;21.20;37.60;;;;;;5036257;28;20033;-49
2023/04/19 02:13:41;;;;;;;3.60;3.05;;;21.10;37.50;;;;;;5037205;28;20048;-51
2023/04/19 02:16:09;;;;;;;3.60;2.88;;;21.10;37.60;;;;;;5035386;28;20029;-51
2023/04/19 02:18:37;;;;;;;3.35;3.05;;;21.10;37.60;;;;;;5034953;28;20449;-49
2023/04/19 02:21:04;;;;;;;4.03;3.13;;;21.10;37.60;;;;;;5050242;28;20433;-50
2023/04/19 02:23:30;;;;;;;4.53;2.78;;;21.10;37.60;;;;;;5035997;28;20029;-51
2023/04/19 02:25:56;;;;;;;3.75;3.00;;;21.10;37.60;;;;;;5068290;28;20033;-52
2023/04/19 02:28:22;;;;;;;4.47;3.17;;;21.10;37.60;;;;;;5041415;28;20467;-51
2023/04/19 02:30:48;;;;;;;3.35;2.50;;;21.10;37.60;;;;;;5036997;28;20029;-50
2023/04/19 02:33:14;;;;;;;3.55;2.85;;;21.00;37.60;;;;;;5035683;28;20044;-52
2023/04/19 02:35:40;;;;;;;3.60;2.72;;;21.10;37.80;;;;;;5035663;28;20026;-53
2023/04/19 02:38:06;;;;;;;4.18;2.63;;;21.00;37.60;;;;;;5037277;28;20119;-49
2023/04/19 02:40:32;;;;;;;4.25;3.00;;;21.00;37.60;;;;;;5035469;28;20620;-50
2023/04/19 02:42:58;;;;;;;3.00;2.63;;;21.00;37.60;;;;;;5037726;28;20120;-51
2023/04/19 02:45:24;;;;;;;4.35;2.95;;;21.00;37.60;;;;;;5051018;28;20045;-51
2023/04/19 02:47:50;;;;;;;4.45;2.53;;;21.00;37.70;;;;;;5047753;28;20110;-47
2023/04/19 02:50:16;;;;;;;3.45;2.75;;;21.00;37.80;;;;;;5049352;28;20483;-50
2023/04/19 02:52:47;;;;;;;4.10;3.00;;;21.00;37.80;;;;;;5048722;28;20021;-53
2023/04/19 02:55:13;;;;;;;3.33;2.50;;;21.00;37.80;;;;;;5051449;28;20359;-54
2023/04/19 02:57:39;;;;;;;2.67;2.20;;;21.00;37.80;;;;;;5046552;28;20060;-51
2023/04/19 03:00:09;;;;;;;3.72;2.88;;;21.00;37.80;;;;;;5039781;28;20099;-51
2023/04/19 03:02:38;;;;;;;3.22;2.55;;;21.00;37.80;;;;;;5050048;28;20033;-53
2023/04/19 03:05:05;;;;;;;3.13;2.28;;;21.00;37.90;;;;;;5038257;28;20025;-54
2023/04/19 03:07:31;;;;;;;3.10;2.53;;;21.00;37.90;;;;;;5050180;28;20028;-52
2023/04/19 03:09:57;;;;;;;2.63;2.17;;;21.00;37.90;;;;;;5039862;28;20037;-47
2023/04/19 03:12:24;;;;;;;3.13;2.53;;;21.00;37.90;;;;;;5043604;28;20094;-49
2023/04/19 03:14:50;;;;;;;2.80;2.20;;;21.00;37.90;;;;;;5047368;28;20029;-47
2023/04/19 03:17:16;;;;;;;3.15;2.38;;;21.00;37.90;;;;;;5048689;28;20029;-52
2023/04/19 03:19:43;;;;;;;3.55;2.50;;;21.00;37.80;;;;;;5040784;28;20091;-47
2023/04/19 03:22:09;;;;;;;3.25;2.47;;;21.00;37.80;;;;;;5052048;28;20172;-49
2023/04/19 03:24:35;;;;;;;3.15;2.60;;;21.00;37.80;;;;;;5041924;28;20024;-49
2023/04/19 03:27:13;;;;;;;2.95;2.22;;;21.00;37.80;;;;;;5049920;28;20036;-49
2023/04/19 03:29:40;;;;;;;2.90;2.40;;;20.90;37.80;;;;;;5036426;28;20452;-51
2023/04/19 03:32:09;;;;;;;3.08;2.13;;;21.00;37.80;;;;;;5052311;28;20116;-52
2023/04/19 03:34:35;;;;;;;2.58;2.17;;;21.00;37.80;;;;;;5052545;28;20033;-47
2023/04/19 03:37:01;;;;;;;4.15;2.40;;;21.00;37.80;;;;;;5049456;28;20024;-47
2023/04/19 03:39:27;;;;;;;2.75;2.38;;;20.90;38.40;;;;;;5053285;28;20043;-52
2023/04/19 03:41:58;;;;;;;3.08;2.33;;;20.90;37.80;;;;;;5052426;28;20098;-49
2023/04/19 03:44:43;;;;;;;;;;;20.90;37.80;;;;;;5053196;28;20049;-50
2023/04/19 03:47:10;;;;;;;2.90;2.30;;;20.90;37.80;;;;;;5050168;28;19916;-49
2023/04/19 03:49:41;;;;;;;3.45;2.20;;;20.90;37.80;;;;;;5050004;28;20029;-52
2023/04/19 03:52:07;;;;;;;2.97;2.33;;;20.90;37.80;;;;;;5051351;28;20021;-51
2023/04/19 03:54:33;;;;;;;2.80;2.20;;;20.90;37.80;;;;;;5035322;28;20029;-47
2023/04/19 03:57:00;;;;;;;3.42;2.25;;;20.90;37.80;;;;;;5043623;28;20033;-53
2023/04/19 03:59:27;;;;;;;4.57;2.20;;;20.90;37.80;;;;;;5049508;28;20044;-52
2023/04/19 04:01:53;;;;;;;4.35;2.17;;;20.90;37.80;;;;;;5050726;28;20030;-48
2023/04/19 04:04:19;;;;;;;2.78;2.10;;;20.90;37.70;;;;;;5034556;28;20029;-48
2023/04/19 04:06:45;;;;;;;2.55;2.00;;;20.80;37.70;;;;;;5034915;28;20329;-51
2023/04/19 04:09:13;;;;;;;3.10;2.17;;;20.90;37.70;;;;;;5031775;28;20447;-47
2023/04/19 04:11:40;;;;;;;2.20;1.98;;;20.90;37.70;;;;;;5042509;28;20021;-51
2023/04/19 04:14:06;;;;;;;4.35;2.30;;;20.80;37.60;;;;;;5049003;28;20044;-50
2023/04/19 04:16:35;;;;;;;2.40;1.83;;;20.90;37.60;;;;;;5048853;28;20091;-48
2023/04/19 04:19:01;;;;;;;3.08;1.98;;;20.80;37.50;;;;;;5037626;28;20025;-50
2023/04/19 04:21:29;;;;;;;2.53;1.88;;;20.80;37.50;;;;;;5037847;28;20052;-47
2023/04/19 04:24:00;;;;;;;3.30;2.28;;;20.80;37.50;;;;;;5052226;28;20043;-49
2023/04/19 04:26:38;;;;;;;2.47;1.90;;;20.80;37.50;;;;;;5037797;28;20048;-49
2023/04/19 04:29:22;;;;;;;2.65;1.90;;;20.80;37.50;;;;;;5047308;28;20033;-47
2023/04/19 04:31:50;;;;;;;2.55;2.00;;;20.80;37.40;;;;;;5055829;28;20040;-52
2023/04/19 04:34:20;;;;;;;4.68;2.00;;;20.80;37.40;;;;;;5067462;28;20092;-52
2023/04/19 04:36:52;;;;;;;3.28;2.08;;;20.80;37.40;;;;;;5046538;28;20133;-52
2023/04/19 04:39:20;;;;;;;2.20;1.63;;;20.80;37.40;;;;;;5049077;28;20061;-48
2023/04/19 04:41:48;;;;;;;2.55;2.10;;;20.80;37.30;;;;;;5048130;28;20369;-50
2023/04/19 04:44:15;;;;;;;2.10;1.88;;;20.80;37.30;;;;;;5055831;28;20044;-49
2023/04/19 04:46:42;;;;;;;2.70;2.00;;;20.80;37.30;;;;;;5049784;28;20025;-53
2023/04/19 04:49:11;;;;;;;2.70;2.08;;;20.80;37.20;;;;;;5039806;28;20500;-50
2023/04/19 04:51:40;;;;;;;2.58;1.95;;;20.80;37.20;;;;;;5060467;28;20082;-48
2023/04/19 04:54:07;;;;;;;2.58;1.92;;;20.80;37.80;;;;;;5039976;28;20060;-52
2023/04/19 04:56:34;;;;;;;3.10;1.85;;;20.80;37.20;;;;;;5036797;28;20061;-53
2023/04/19 04:59:00;;;;;;;2.00;1.80;;;20.80;37.10;;;;;;5036562;28;20068;-49
2023/04/19 05:01:31;;;;;;;2.70;2.13;;;20.80;37.10;;;;;;5055253;28;20025;-49
2023/04/19 05:03:57;;;;;;;3.03;2.00;;;20.80;37.10;;;;;;5045481;28;20036;-49
2023/04/19 05:06:23;;;;;;;1.92;1.63;;;20.80;37.10;;;;;;5057675;28;20090;-52
2023/04/19 05:08:49;;;;;;;5.10;1.80;;;20.80;37.10;;;;;;5049961;28;20036;-55
2023/04/19 05:11:26;;;;;;;2.35;1.80;;;20.80;37.10;;;;;;5052200;28;20021;-54
2023/04/19 05:13:52;;;;;;;2.28;1.75;;;20.80;37.10;;;;;;5042143;28;20540;-48
2023/04/19 05:16:18;;;;;;;2.83;1.70;;;20.70;37.00;;;;;;5069375;28;20057;-54
2023/04/19 05:18:46;;;;;;;2.67;1.80;;;20.80;37.70;;;;;;5069830;28;20033;-51
2023/04/19 05:21:12;;;;;;;2.40;1.80;;;20.80;37.00;;;;;;5048090;28;20035;-48
2023/04/19 05:23:40;;;;;;;2.67;1.52;;;20.80;36.90;;;;;;5036577;28;20471;-50
2023/04/19 05:26:06;;;;;;;2.33;1.90;;;20.80;36.90;;;;;;5036798;28;20452;-51
2023/04/19 05:28:32;;;;;;;3.92;1.70;;;20.80;36.80;;;;;;5052804;28;20064;-51
2023/04/19 05:31:07;;;;;;;1.98;1.55;;;20.80;36.80;;;;;;5044329;28;20441;-49
2023/04/19 05:33:39;;;;;;;2.03;1.52;;;20.80;36.70;;;;;;5041533;28;20040;-48
2023/04/19 05:36:05;;;;;;;2.15;1.90;;;20.80;36.70;;;;;;5053707;28;20021;-47
2023/04/19 05:38:31;;;;;;;1.77;1.63;;;20.80;36.70;;;;;;5056748;28;20029;-46
2023/04/19 05:41:01;;;;;;;2.28;1.70;;;20.80;36.70;;;;;;5054409;28;20033;-48
2023/04/19 05:43:27;;;;;;;2.10;1.83;;;20.80;36.70;;;;;;5048871;28;20112;-50
2023/04/19 05:45:53;;;;;;;2.03;1.70;;;20.80;36.60;;;;;;5056004;28;20049;-50
2023/04/19 05:48:19;;;;;;;3.03;1.92;;;20.80;36.50;;;;;;5037144;28;20029;-47
2023/04/19 05:51:13;;;;;;;3.20;2.00;;;20.80;36.50;;;;;;5038926;28;20055;-52
2023/04/19 05:54:14;;;;;;;3.97;1.75;;;20.80;36.40;;;;;;5014817;28;20055;-48
2023/04/19 05:56:43;;;;;;;2.45;1.70;;;20.80;36.30;;;;;;5034682;28;20098;-50
2023/04/19 05:59:10;;;;;;;2.60;1.60;;;20.80;36.20;;;;;;5054253;28;20052;-49
2023/04/19 06:01:36;;;;;;;2.50;1.92;;;20.80;36.10;;;;;;5048953;28;20759;-52
2023/04/19 06:04:02;;;;;;;2.00;1.70;;;20.80;36.00;;;;;;5042197;28;20026;-49
2023/04/19 06:06:28;;;;;;;3.28;1.92;;;20.80;36.00;;;;;;5054965;28;20025;-53
2023/04/19 06:08:53;;;;;;;3.85;1.80;;;20.80;36.00;;;;;;5054337;28;20520;-51
2023/04/19 06:11:20;;;;;;;2.90;1.77;;;20.90;36.00;;;;;;5052225;28;20040;-50
2023/04/19 06:13:46;;;;;;;1.42;1.30;;;20.90;36.00;;;;;;5052192;28;20036;-49
2023/04/19 06:16:12;;;;;;;2.30;1.80;;;20.80;35.90;;;;;;5044732;28;20021;-50
2023/04/19 06:18:39;;;;;;;3.05;1.92;;;20.80;35.90;;;;;;5040833;28;20026;-47
2023/04/19 06:21:05;;;;;;;2.28;1.60;;;20.90;36.30;;;;;;5054120;28;20025;-48
2023/04/19 06:23:31;;;;;;;2.25;1.60;;;20.90;35.90;;;;;;5054493;28;20048;-48
2023/04/19 06:25:57;;;;;;;3.63;1.85;;;20.80;35.70;;;;;;5050716;28;20025;-51
2023/04/19 06:28:23;;;;;;;3.28;1.70;;;20.80;35.60;;;;;;5040247;28;20029;-52
2023/04/19 06:30:49;;;;;;;3.10;1.63;;;20.80;35.60;;;;;;5053697;28;20036;-53
2023/04/19 06:33:14;;;;;;;4.05;2.30;;;20.80;35.40;;;;;;5045634;28;20182;-49
2023/04/19 06:35:40;;;;;;;3.85;2.58;;;20.80;35.40;;;;;;5043456;28;20028;-53
2023/04/19 06:38:06;;;;;;;4.68;3.00;;;20.80;35.30;;;;;;5036987;28;20083;-52
2023/04/19 06:40:33;;;;;;;5.95;3.50;;;20.80;35.20;;;;;;5054740;28;20033;-53
2023/04/19 06:42:59;;;;;;;5.72;3.53;;;20.80;35.20;;;;;;5038751;28;20035;-50
2023/04/19 06:45:25;;;;;;;7.75;4.45;;;20.80;35.20;;;;;;5037429;28;20053;-50
2023/04/19 06:47:50;;;;;;;9.57;5.53;;;20.80;35.20;;;;;;5041987;28;20025;-50
2023/04/19 06:50:16;;;;;;;9.95;6.25;;;20.80;35.20;;;;;;5040495;28;20037;-50
2023/04/19 06:52:42;;;;;;;11.18;7.50;;;20.80;35.20;;;;;;5045914;28;20036;-49
2023/04/19 06:55:08;;;;;;;10.32;6.50;;;20.80;35.10;;;;;;5047772;28;20033;-50
2023/04/19 06:57:34;;;;;;;10.35;6.18;;;20.90;34.90;;;;;;5044362;28;20047;-52
2023/04/19 07:00:00;;;;;;;7.70;5.28;;;20.80;34.70;;;;;;5034473;28;20121;-53
2023/04/19 07:02:26;;;;;;;10.38;6.18;;;20.80;34.50;;;;;;5043187;28;20025;-48
2023/04/19 07:04:51;;;;;;;9.02;5.60;;;20.80;34.30;;;;;;5036567;28;20021;-52
2023/04/19 07:07:17;;;;;;;8.20;5.63;;;20.80;34.10;;;;;;5035764;28;20037;-48
2023/04/19 07:09:43;;;;;;;8.82;5.38;;;20.90;34.00;;;;;;5033308;28;20029;-52
2023/04/19 07:12:09;;;;;;;7.28;5.20;;;20.80;33.90;;;;;;5034865;28;20033;-49
2023/04/19 07:14:35;;;;;;;10.30;6.05;;;20.90;33.90;;;;;;5038363;28;20025;-51
2023/04/19 07:17:04;;;;;;;9.40;5.95;;;20.90;33.90;;;;;;5035614;28;20427;-49
2023/04/19 07:19:30;;;;;;;8.63;5.47;;;20.90;34.40;;;;;;5045363;28;20068;-54
2023/04/19 07:21:56;;;;;;;8.95;5.50;;;20.90;33.60;;;;;;5039358;28;20068;-54
2023/04/19 07:24:22;;;;;;;7.78;4.78;;;21.00;33.50;;;;;;5041759;28;20021;-54
2023/04/19 07:26:47;;;;;;;7.50;4.53;;;21.00;33.40;;;;;;5039433;28;20431;-50
2023/04/19 07:29:13;;;;;;;8.07;4.85;;;21.00;33.40;;;;;;5037361;28;20030;-50
2023/04/19 07:31:40;;;;;;;8.32;5.07;;;21.00;33.20;;;;;;5042591;28;20112;-50
2023/04/19 07:34:06;;;;;;;5.38;3.83;;;21.00;33.10;;;;;;5050973;28;20079;-51
2023/04/19 07:36:34;;;;;;;6.32;4.07;;;21.10;33.00;;;;;;5049813;28;20094;-51
2023/04/19 07:39:00;;;;;;;8.52;3.72;;;21.10;32.90;;;;;;5047261;28;20437;-50
2023/04/19 07:41:26;;;;;;;6.40;4.10;;;21.10;32.70;;;;;;5064402;28;20024;-50
2023/04/19 07:43:51;;;;;;;5.88;3.50;;;21.10;32.60;;;;;;5051787;28;20092;-49
2023/04/19 07:46:17;;;;;;;6.13;3.70;;;21.20;32.50;;;;;;5039305;28;20071;-53
2023/04/19 07:48:43;;;;;;;4.97;3.20;;;21.20;32.40;;;;;;5034660;28;20028;-49
2023/04/19 07:51:10;;;;;;;5.90;3.55;;;21.20;32.30;;;;;;5050842;28;20078;-48
2023/04/19 07:53:37;;;;;;;5.57;3.00;;;21.20;32.20;;;;;;5036596;28;20041;-56
2023/04/19 07:56:03;;;;;;;4.68;3.05;;;21.20;32.00;;;;;;5038842;28;20037;-49
2023/04/19 07:58:29;;;;;;;5.60;2.95;;;21.20;32.00;;;;;;5034656;28;20068;-48
2023/04/19 08:00:55;;;;;;;4.35;2.97;;;21.30;32.00;;;;;;5036949;28;20061;-48
2023/04/19 08:03:20;;;;;;;5.20;2.65;;;21.30;31.90;;;;;;5034067;28;20109;-50
2023/04/19 08:05:46;;;;;;;6.47;2.90;;;21.30;31.80;;;;;;5043201;28;20075;-50
2023/04/19 08:08:12;;;;;;;3.47;2.38;;;21.30;31.70;;;;;;5041988;28;20071;-52
2023/04/19 08:10:38;;;;;;;3.95;2.70;;;21.30;31.60;;;;;;5033793;28;20380;-49
2023/04/19 08:13:04;;;;;;;4.63;2.55;;;21.40;31.60;;;;;;5034646;28;20034;-49
2023/04/19 08:15:32;;;;;;;3.35;2.17;;;21.40;31.50;;;;;;5034125;28;20029;-48
2023/04/19 08:17:57;;;;;;;3.08;2.17;;;21.40;31.30;;;;;;5035497;28;20164;-48
2023/04/19 08:20:24;;;;;;;4.15;2.42;;;21.40;31.20;;;;;;5034181;28;20116;-54
2023/04/19 08:22:50;;;;;;;3.75;2.30;;;21.40;31.10;;;;;;5052151;28;20093;-51
2023/04/19 08:25:16;;;;;;;3.70;2.08;;;21.40;31.00;;;;;;5054230;28;20029;-50
2023/04/19 08:27:42;;;;;;;2.88;2.33;;;21.40;30.90;;;;;;5048605;28;20116;-50
2023/04/19 08:30:09;;;;;;;2.80;1.70;;;21.40;30.80;;;;;;5051403;28;20500;-52
2023/04/19 08:32:35;;;;;;;3.05;1.98;;;21.40;30.70;;;;;;5036701;28;20039;-52
2023/04/19 08:35:02;;;;;;;2.88;1.90;;;21.40;30.60;;;;;;5053597;28;20033;-51
2023/04/19 08:37:28;;;;;;;2.80;1.80;;;21.50;30.60;;;;;;5039278;28;20026;-49
2023/04/19 08:39:54;;;;;;;3.70;1.60;;;21.40;30.50;;;;;;5043081;28;20391;-48
2023/04/19 08:42:20;;;;;;;2.53;1.95;;;21.50;30.40;;;;;;5053379;28;20029;-49
2023/04/19 08:44:46;;;;;;;2.38;1.48;;;21.50;30.30;;;;;;5053989;28;20073;-51
2023/04/19 08:47:15;;;;;;;3.10;1.70;;;21.50;30.20;;;;;;5041043;28;20033;-47
2023/04/19 08:49:41;;;;;;;2.58;1.55;;;21.40;30.00;;;;;;5049794;28;20052;-51
2023/04/19 08:52:09;;;;;;;2.10;1.58;;;21.50;30.00;;;;;;5052971;28;20037;-52
2023/04/19 08:54:35;;;;;;;2.72;1.50;;;21.40;29.90;;;;;;5043854;28;20119;-48
2023/04/19 08:57:02;;;;;;;2.20;1.38;;;21.40;29.90;;;;;;5046921;28;20087;-49
2023/04/19 08:59:29;;;;;;;1.85;1.10;;;21.40;29.80;;;;;;5047920;28;20055;-48
2023/04/19 09:01:59;;;;;;;1.65;1.13;;;21.40;29.70;;;;;;5054448;28;20036;-50
2023/04/19 09:04:25;;;;;;;2.70;1.23;;;21.40;29.70;;;;;;5042024;28;20029;-52
2023/04/19 09:06:51;;;;;;;1.05;0.90;;;21.40;29.60;;;;;;5040904;28;20044;-47
2023/04/19 09:09:18;;;;;;;2.10;1.25;;;21.50;29.60;;;;;;5037426;28;20040;-49
2023/04/19 09:11:44;;;;;;;2.03;1.10;;;21.40;29.50;;;;;;5037546;28;20065;-54
2023/04/19 09:14:11;;;;;;;2.47;1.42;;;21.40;29.50;;;;;;5037350;28;20026;-50
2023/04/19 09:16:38;;;;;;;1.45;1.00;;;21.40;29.40;;;;;;5037159;28;20100;-49
2023/04/19 09:19:05;;;;;;;1.83;1.02;;;21.40;29.40;;;;;;5052932;28;20111;-50
2023/04/19 09:21:32;;;;;;;1.65;0.98;;;21.40;29.40;;;;;;5068294;28;20025;-46
2023/04/19 09:23:58;;;;;;;2.63;1.30;;;21.40;29.40;;;;;;5052415;28;20021;-49
2023/04/19 09:26:28;;;;;;;1.42;0.95;;;21.40;29.40;;;;;;5048721;28;20032;-49
2023/04/19 09:29:01;;;;;;;3.50;1.00;;;21.40;29.40;;;;;;5047665;28;20040;-47
2023/04/19 09:31:35;;;;;;;1.85;1.00;;;21.40;29.30;;;;;;5037179;28;20029;-50
2023/04/19 09:34:17;;;;;;;1.67;0.98;;;21.40;29.30;;;;;;5042350;28;20029;-53
2023/04/19 09:36:43;;;;;;;1.33;0.90;;;21.40;29.30;;;;;;5056970;28;20033;-52
2023/04/19 09:39:10;;;;;;;1.00;0.80;;;21.40;29.30;;;;;;5056563;28;20055;-53
2023/04/19 09:41:55;;;;;;;1.75;0.93;;;21.40;29.30;;;;;;5054162;28;20033;-52
2023/04/19 09:44:21;;;;;;;1.77;1.02;;;21.40;29.30;;;;;;5045107;28;20087;-54
2023/04/19 09:46:49;;;;;;;1.83;1.00;;;21.30;29.30;;;;;;5052247;28;20024;-49
2023/04/19 09:49:15;;;;;;;1.10;0.80;;;21.40;29.40;;;;;;5049022;28;20112;-49
2023/04/19 09:51:48;;;;;;;2.03;1.08;;;21.40;29.40;;;;;;5050642;28;20025;-49
2023/04/19 09:54:16;;;;;;;1.20;0.80;;;21.40;29.40;;;;;;5057182;28;20028;-49
2023/04/19 09:56:43;;;;;;;0.93;0.82;;;21.40;29.40;;;;;;5042039;28;20028;-47
2023/04/19 09:59:10;;;;;;;1.00;0.82;;;21.40;29.40;;;;;;5044411;28;20037;-47
2023/04/19 10:01:46;;;;;;;2.35;1.00;;;21.40;29.30;;;;;;5036459;28;20037;-48
2023/04/19 10:04:22;;;;;;;1.40;0.90;;;21.40;29.30;;;;;;5034480;28;20049;-46
2023/04/19 10:06:50;;;;;;;1.88;0.95;;;21.30;29.20;;;;;;5034224;28;20029;-48
2023/04/19 10:09:21;;;;;;;2.13;0.80;;;21.40;29.30;;;;;;5043353;28;20033;-52
2023/04/19 10:11:49;;;;;;;1.90;0.85;;;21.40;29.30;;;;;;5045626;28;20026;-52
2023/04/19 10:14:16;;;;;;;1.75;1.00;;;21.40;29.30;;;;;;5050335;28;20479;-52
2023/04/19 10:16:48;;;;;;;1.48;0.93;;;21.40;29.30;;;;;;5053190;28;20113;-51
2023/04/19 10:19:17;;;;;;;1.55;0.82;;;21.40;29.30;;;;;;5038903;28;20037;-51
2023/04/19 10:21:46;;;;;;;2.00;1.08;;;21.40;29.30;;;;;;5038811;28;20037;-49
2023/04/19 10:24:14;;;;;;;1.67;0.93;;;21.40;29.30;;;;;;5034722;28;20548;-48
2023/04/19 10:27:02;;;;;;;2.17;1.42;;;21.30;29.40;;;;;;5039232;28;20029;-48
2023/04/19 10:30:00;;;;;;;2.30;1.38;;;21.40;29.50;;;;;;5049433;28;20025;-48
2023/04/19 10:32:31;;;;;;;2.72;1.75;;;21.30;29.50;;;;;;5053391;28;20112;-50
2023/04/19 10:35:03;;;;;;;2.92;2.30;;;21.40;30.00;;;;;;5053796;28;20040;-52
2023/04/19 10:37:30;;;;;;;3.15;2.38;;;21.30;30.80;;;;;;5051488;28;20440;-52
2023/04/19 10:39:57;;;;;;;3.85;2.53;;;21.40;31.40;;;;;;5059750;28;20041;-58
2023/04/19 10:42:22;;;;;;;3.28;2.35;;;21.40;31.70;;;;;;5051492;28;20049;-50
2023/04/19 10:45:26;;;;;;;3.20;2.20;;;21.50;31.90;;;;;;5054446;28;20087;-52
2023/04/19 10:47:52;;;;;;;2.83;2.30;;;21.40;31.80;;;;;;5058641;28;20454;-47
2023/04/19 10:50:18;;;;;;;3.13;2.38;;;21.50;32.00;;;;;;5053031;28;20115;-48
2023/04/19 10:52:45;;;;;;;3.60;2.30;;;21.50;32.10;;;;;;5052853;28;20039;-50
2023/04/19 10:55:17;;;;;;;3.38;2.10;;;21.50;32.20;;;;;;5050998;28;20043;-48
2023/04/19 10:58:02;;;;;;;2.70;2.13;;;21.50;32.20;;;;;;5035924;28;20044;-47
2023/04/19 11:00:30;;;;;;;4.82;2.42;;;21.50;32.30;;;;;;5035711;28;20053;-47
2023/04/19 11:02:58;;;;;;;3.33;1.90;;;21.60;32.40;;;;;;5044736;28;20448;-49
2023/04/19 11:05:24;;;;;;;2.90;1.92;;;21.60;32.50;;;;;;5052407;28;20360;-50
2023/04/19 11:07:50;;;;;;;3.53;1.98;;;21.60;32.50;;;;;;5052099;28;20107;-47
2023/04/19 11:10:29;;;;;;;2.95;1.60;;;21.60;32.50;;;;;;5052187;28;20124;-48
2023/04/19 11:12:55;;;;;;;2.38;1.73;;;21.70;32.40;;;;;;5051589;28;20056;-52
2023/04/19 11:15:22;;;;;;;1.80;1.45;;;21.70;32.40;;;;;;5053231;28;20507;-47
2023/04/19 11:17:51;;;;;;;2.28;1.50;;;21.70;32.30;;;;;;5050220;28;20041;-49
2023/04/19 11:20:23;;;;;;;2.30;1.55;;;21.70;32.20;;;;;;5053136;28;20048;-49
2023/04/19 11:22:50;;;;;;;1.40;1.27;;;21.70;31.50;;;;;;5052997;28;20326;-50
2023/04/19 11:25:18;;;;;;;3.50;1.20;;;21.70;31.10;;;;;;5053412;28;20029;-50
2023/04/19 11:27:49;;;;;;;2.72;1.60;;;21.70;30.70;;;;;;5052652;28;20029;-52
2023/04/19 11:30:21;;;;;;;1.45;1.00;;;21.70;30.40;;;;;;5051591;28;20025;-46
2023/04/19 11:32:48;;;;;;;2.28;1.20;;;21.70;30.10;;;;;;5051802;28;20044;-50
2023/04/19 11:35:17;;;;;;;1.42;0.93;;;21.70;30.00;;;;;;5052921;28;20021;-52
2023/04/19 11:37:43;;;;;;;1.88;1.17;;;21.70;29.90;;;;;;5059413;28;20345;-50
2023/04/19 11:40:13;;;;;;;1.33;1.00;;;21.70;29.80;;;;;;5053736;28;20044;-49
2023/04/19 11:42:39;;;;;;;2.95;1.25;;;21.70;29.60;;;;;;5053320;28;20345;-54
2023/04/19 11:45:05;;;;;;;1.23;0.85;;;21.70;29.50;;;;;;5053172;28;20045;-54
2023/04/19 11:47:32;;;;;;;1.80;1.00;;;21.70;29.50;;;;;;5052789;28;20032;-52
2023/04/19 11:50:34;;;;;;;3.67;0.90;;;21.70;29.50;;;;;;5055581;28;20021;-50
2023/04/19 11:53:09;;;;;;;0.75;0.70;;;21.70;29.40;;;;;;5048012;28;20025;-51
2023/04/19 11:55:35;;;;;;;2.75;1.00;;;21.60;29.30;;;;;;5047402;28;20071;-53
2023/04/19 11:58:05;;;;;;;0.95;0.60;;;21.60;29.30;;;;;;5051653;28;20105;-49
2023/04/19 12:00:31;;;;;;;2.47;1.00;;;21.60;29.20;;;;;;5043916;28;20045;-52
2023/04/19 12:02:58;;;;;;;1.65;0.80;;;21.60;29.20;;;;;;5050548;28;20167;-51
2023/04/19 12:05:24;;;;;;;1.10;0.90;;;21.60;29.10;;;;;;5054849;28;20087;-53
2023/04/19 12:08:04;;;;;;;0.70;0.60;;;21.60;29.00;;;;;;5055142;28;20109;-53
2023/04/19 12:10:31;;;;;;;1.48;0.85;;;21.60;29.00;;;;;;5074453;28;20032;-50
2023/04/19 12:12:57;;;;;;;1.02;0.85;;;21.60;29.00;;;;;;5066417;28;20035;-51
2023/04/19 12:15:39;;;;;;;1.52;0.80;;;21.60;28.90;;;;;;5055313;28;20033;-53
2023/04/19 12:18:05;;;;;;;1.08;0.68;;;21.60;28.90;;;;;;5057065;28;20102;-49
2023/04/19 12:20:34;;;;;;;1.45;0.88;;;21.60;28.80;;;;;;5046507;28;20033;-47
2023/04/19 12:23:01;;;;;;;1.75;0.90;;;21.60;28.80;;;;;;5041855;28;20061;-52
2023/04/19 12:25:30;;;;;;;0.75;0.73;;;21.60;28.70;;;;;;5065253;28;20372;-52
2023/04/19 12:27:56;;;;;;;1.75;1.00;;;21.60;28.60;;;;;;5063551;28;20048;-50
2023/04/19 12:30:23;;;;;;;1.15;0.80;;;21.60;28.90;;;;;;5061681;28;20133;-51
2023/04/19 12:32:50;;;;;;;1.02;0.85;;;21.60;29.60;;;;;;5053342;28;20038;-52
2023/04/19 12:35:17;;;;;;;1.70;1.05;;;21.70;30.10;;;;;;5035681;28;20068;-53
2023/04/19 12:37:43;;;;;;;1.33;0.93;;;21.70;30.50;;;;;;5074055;28;20039;-50
2023/04/19 12:40:10;;;;;;;1.38;0.90;;;21.80;30.70;;;;;;5075599;28;20036;-55
2023/04/19 12:42:37;;;;;;;1.50;1.00;;;21.80;30.80;;;;;;5070011;28;20104;-57
2023/04/19 12:45:03;;;;;;;1.23;0.98;;;21.90;30.80;;;;;;5057071;28;20132;-53
2023/04/19 12:47:29;;;;;;;1.35;0.90;;;22.00;30.80;;;;;;5054729;28;20455;-46
2023/04/19 12:49:56;;;;;;;1.80;1.00;;;22.20;30.80;;;;;;5055399;28;20078;-52
2023/04/19 12:52:22;;;;;;;0.90;0.77;;;22.20;30.50;;;;;;5056833;28;20035;-45